<?xml version="1.0" encoding="UTF-8" standalone="no" ?>
<gpx xmlns="http://www.topografix.com/GPX/1/1" xmlns:xsi="http://www.w3.org/2001/XMLSchema-instance" xsi:schemaLocation="http://www.topografix.com/GPX/1/1 http://www.topografix.com/GPX/1/1/gpx.xsd" version="1.1" creator="VisuGPX - https://www.visugpx.com">
  <metadata>
    <name>AVF - Ma - 25-02- Ampus - Notre Dame de Spéluque</name>
    <desc><![CDATA[Ampus - Notre Dame de Spéluque]]></desc>
  </metadata>
  <trk>
    <name><![CDATA[ampus]]></name>
    <trkseg>
      <trkpt lat="43.60571" lon="6.38219">
        <ele>573.46</ele>
        <time>2014-02-25T12:47:01Z</time>
      </trkpt>
      <trkpt lat="43.60567" lon="6.38209">
        <ele>581.42</ele>
        <time>2014-02-25T12:47:19Z</time>
      </trkpt>
      <trkpt lat="43.60571" lon="6.38227">
        <ele>578.74</ele>
        <time>2014-02-25T12:48:00Z</time>
      </trkpt>
      <trkpt lat="43.60571" lon="6.38227">
        <ele>572.51</ele>
        <time>2014-02-25T12:49:51Z</time>
      </trkpt>
      <trkpt lat="43.60588" lon="6.38239">
        <ele>570.63</ele>
        <time>2014-02-25T12:50:11Z</time>
      </trkpt>
      <trkpt lat="43.60588" lon="6.38239">
        <ele>570.63</ele>
        <time>2014-02-25T12:50:11Z</time>
      </trkpt>
      <trkpt lat="43.60606" lon="6.38245">
        <ele>569.64</ele>
        <time>2014-02-25T12:50:39Z</time>
      </trkpt>
      <trkpt lat="43.60625" lon="6.3824">
        <ele>569.83</ele>
        <time>2014-02-25T12:51:01Z</time>
      </trkpt>
      <trkpt lat="43.60645" lon="6.38242">
        <ele>573.09</ele>
        <time>2014-02-25T12:51:24Z</time>
      </trkpt>
      <trkpt lat="43.60658" lon="6.38259">
        <ele>575.61</ele>
        <time>2014-02-25T12:51:45Z</time>
      </trkpt>
      <trkpt lat="43.60674" lon="6.38275">
        <ele>578.57</ele>
        <time>2014-02-25T12:52:11Z</time>
      </trkpt>
      <trkpt lat="43.60689" lon="6.38293">
        <ele>580.41</ele>
        <time>2014-02-25T12:52:35Z</time>
      </trkpt>
      <trkpt lat="43.60702" lon="6.38314">
        <ele>583.23</ele>
        <time>2014-02-25T12:52:55Z</time>
      </trkpt>
      <trkpt lat="43.60702" lon="6.38314">
        <ele>583.23</ele>
        <time>2014-02-25T12:52:55Z</time>
      </trkpt>
      <trkpt lat="43.60708" lon="6.38319">
        <ele>585.03</ele>
        <time>2014-02-25T12:53:21Z</time>
      </trkpt>
      <trkpt lat="43.60721" lon="6.38341">
        <ele>584.97</ele>
        <time>2014-02-25T12:53:43Z</time>
      </trkpt>
      <trkpt lat="43.60724" lon="6.38366">
        <ele>584.28</ele>
        <time>2014-02-25T12:54:03Z</time>
      </trkpt>
      <trkpt lat="43.6074" lon="6.38354">
        <ele>581.27</ele>
        <time>2014-02-25T12:54:43Z</time>
      </trkpt>
      <trkpt lat="43.60759" lon="6.3836">
        <ele>578.77</ele>
        <time>2014-02-25T12:55:15Z</time>
      </trkpt>
      <trkpt lat="43.60778" lon="6.3836">
        <ele>575.31</ele>
        <time>2014-02-25T12:55:43Z</time>
      </trkpt>
      <trkpt lat="43.60797" lon="6.38358">
        <ele>572.91</ele>
        <time>2014-02-25T12:56:05Z</time>
      </trkpt>
      <trkpt lat="43.60797" lon="6.38358">
        <ele>572.91</ele>
        <time>2014-02-25T12:56:05Z</time>
      </trkpt>
      <trkpt lat="43.60817" lon="6.38357">
        <ele>571.03</ele>
        <time>2014-02-25T12:56:27Z</time>
      </trkpt>
      <trkpt lat="43.60836" lon="6.38356">
        <ele>568.44</ele>
        <time>2014-02-25T12:56:55Z</time>
      </trkpt>
      <trkpt lat="43.60854" lon="6.38353">
        <ele>568.05</ele>
        <time>2014-02-25T12:57:11Z</time>
      </trkpt>
      <trkpt lat="43.60873" lon="6.38355">
        <ele>565.88</ele>
        <time>2014-02-25T12:57:35Z</time>
      </trkpt>
      <trkpt lat="43.60892" lon="6.38356">
        <ele>562.73</ele>
        <time>2014-02-25T12:58:03Z</time>
      </trkpt>
      <trkpt lat="43.60911" lon="6.38364">
        <ele>558.72</ele>
        <time>2014-02-25T12:58:33Z</time>
      </trkpt>
      <trkpt lat="43.6093" lon="6.38363">
        <ele>556.04</ele>
        <time>2014-02-25T12:58:55Z</time>
      </trkpt>
      <trkpt lat="43.60948" lon="6.38363">
        <ele>557.53</ele>
        <time>2014-02-25T12:59:17Z</time>
      </trkpt>
      <trkpt lat="43.60948" lon="6.38363">
        <ele>557.53</ele>
        <time>2014-02-25T12:59:17Z</time>
      </trkpt>
      <trkpt lat="43.60968" lon="6.38361">
        <ele>557.31</ele>
        <time>2014-02-25T12:59:35Z</time>
      </trkpt>
      <trkpt lat="43.60987" lon="6.38363">
        <ele>556.88</ele>
        <time>2014-02-25T12:59:55Z</time>
      </trkpt>
      <trkpt lat="43.61005" lon="6.38365">
        <ele>555.76</ele>
        <time>2014-02-25T13:00:15Z</time>
      </trkpt>
      <trkpt lat="43.61024" lon="6.38363">
        <ele>552.44</ele>
        <time>2014-02-25T13:00:43Z</time>
      </trkpt>
      <trkpt lat="43.61041" lon="6.38356">
        <ele>548.68</ele>
        <time>2014-02-25T13:01:07Z</time>
      </trkpt>
      <trkpt lat="43.6106" lon="6.38349">
        <ele>543.83</ele>
        <time>2014-02-25T13:01:25Z</time>
      </trkpt>
      <trkpt lat="43.61077" lon="6.38336">
        <ele>541.52</ele>
        <time>2014-02-25T13:01:49Z</time>
      </trkpt>
      <trkpt lat="43.61096" lon="6.38327">
        <ele>539.21</ele>
        <time>2014-02-25T13:02:09Z</time>
      </trkpt>
      <trkpt lat="43.61096" lon="6.38327">
        <ele>539.21</ele>
        <time>2014-02-25T13:02:09Z</time>
      </trkpt>
      <trkpt lat="43.61115" lon="6.38322">
        <ele>538.34</ele>
        <time>2014-02-25T13:02:41Z</time>
      </trkpt>
      <trkpt lat="43.61134" lon="6.3833">
        <ele>537.26</ele>
        <time>2014-02-25T13:03:11Z</time>
      </trkpt>
      <trkpt lat="43.6115" lon="6.38343">
        <ele>536.1</ele>
        <time>2014-02-25T13:03:31Z</time>
      </trkpt>
      <trkpt lat="43.61163" lon="6.38363">
        <ele>534.92</ele>
        <time>2014-02-25T13:03:51Z</time>
      </trkpt>
      <trkpt lat="43.61169" lon="6.38389">
        <ele>533.72</ele>
        <time>2014-02-25T13:04:09Z</time>
      </trkpt>
      <trkpt lat="43.61177" lon="6.38413">
        <ele>533.93</ele>
        <time>2014-02-25T13:04:29Z</time>
      </trkpt>
      <trkpt lat="43.61181" lon="6.38438">
        <ele>534.26</ele>
        <time>2014-02-25T13:04:49Z</time>
      </trkpt>
      <trkpt lat="43.61185" lon="6.38463">
        <ele>534.97</ele>
        <time>2014-02-25T13:05:09Z</time>
      </trkpt>
      <trkpt lat="43.61185" lon="6.38463">
        <ele>534.97</ele>
        <time>2014-02-25T13:05:09Z</time>
      </trkpt>
      <trkpt lat="43.6119" lon="6.38488">
        <ele>534.53</ele>
        <time>2014-02-25T13:05:33Z</time>
      </trkpt>
      <trkpt lat="43.61194" lon="6.38513">
        <ele>534.23</ele>
        <time>2014-02-25T13:05:53Z</time>
      </trkpt>
      <trkpt lat="43.61206" lon="6.38533">
        <ele>534.08</ele>
        <time>2014-02-25T13:06:12Z</time>
      </trkpt>
      <trkpt lat="43.61223" lon="6.38541">
        <ele>535.93</ele>
        <time>2014-02-25T13:06:38Z</time>
      </trkpt>
      <trkpt lat="43.61242" lon="6.38547">
        <ele>538.55</ele>
        <time>2014-02-25T13:07:06Z</time>
      </trkpt>
      <trkpt lat="43.6126" lon="6.38551">
        <ele>540.46</ele>
        <time>2014-02-25T13:07:34Z</time>
      </trkpt>
      <trkpt lat="43.61278" lon="6.38562">
        <ele>542.81</ele>
        <time>2014-02-25T13:08:08Z</time>
      </trkpt>
      <trkpt lat="43.61278" lon="6.38562">
        <ele>542.81</ele>
        <time>2014-02-25T13:08:08Z</time>
      </trkpt>
      <trkpt lat="43.61295" lon="6.38573">
        <ele>546.04</ele>
        <time>2014-02-25T13:08:30Z</time>
      </trkpt>
      <trkpt lat="43.61312" lon="6.38584">
        <ele>548.15</ele>
        <time>2014-02-25T13:08:46Z</time>
      </trkpt>
      <trkpt lat="43.61331" lon="6.38591">
        <ele>549.99</ele>
        <time>2014-02-25T13:09:04Z</time>
      </trkpt>
      <trkpt lat="43.6135" lon="6.38596">
        <ele>552.21</ele>
        <time>2014-02-25T13:09:28Z</time>
      </trkpt>
      <trkpt lat="43.61368" lon="6.38607">
        <ele>553.71</ele>
        <time>2014-02-25T13:09:52Z</time>
      </trkpt>
      <trkpt lat="43.61385" lon="6.38617">
        <ele>555.5</ele>
        <time>2014-02-25T13:10:14Z</time>
      </trkpt>
      <trkpt lat="43.61403" lon="6.38628">
        <ele>557.39</ele>
        <time>2014-02-25T13:10:38Z</time>
      </trkpt>
      <trkpt lat="43.61416" lon="6.38639">
        <ele>559.76</ele>
        <time>2014-02-25T13:11:34Z</time>
      </trkpt>
      <trkpt lat="43.61419" lon="6.38644">
        <ele>559.98</ele>
        <time>2014-02-25T13:11:54Z</time>
      </trkpt>
      <trkpt lat="43.61438" lon="6.38643">
        <ele>561.65</ele>
        <time>2014-02-25T13:12:56Z</time>
      </trkpt>
      <trkpt lat="43.61455" lon="6.38651">
        <ele>563.4</ele>
        <time>2014-02-25T13:13:22Z</time>
      </trkpt>
      <trkpt lat="43.61474" lon="6.38654">
        <ele>564.76</ele>
        <time>2014-02-25T13:13:48Z</time>
      </trkpt>
      <trkpt lat="43.61492" lon="6.38659">
        <ele>566.08</ele>
        <time>2014-02-25T13:14:16Z</time>
      </trkpt>
      <trkpt lat="43.61492" lon="6.38659">
        <ele>566.08</ele>
        <time>2014-02-25T13:14:16Z</time>
      </trkpt>
      <trkpt lat="43.61511" lon="6.38664">
        <ele>568.52</ele>
        <time>2014-02-25T13:14:46Z</time>
      </trkpt>
      <trkpt lat="43.61531" lon="6.38659">
        <ele>570.79</ele>
        <time>2014-02-25T13:15:08Z</time>
      </trkpt>
      <trkpt lat="43.61549" lon="6.38653">
        <ele>571.98</ele>
        <time>2014-02-25T13:15:34Z</time>
      </trkpt>
      <trkpt lat="43.61568" lon="6.38655">
        <ele>574.99</ele>
        <time>2014-02-25T13:16:00Z</time>
      </trkpt>
      <trkpt lat="43.61587" lon="6.38657">
        <ele>578.85</ele>
        <time>2014-02-25T13:16:30Z</time>
      </trkpt>
      <trkpt lat="43.61605" lon="6.38663">
        <ele>583.44</ele>
        <time>2014-02-25T13:17:00Z</time>
      </trkpt>
      <trkpt lat="43.61605" lon="6.38663">
        <ele>583.44</ele>
        <time>2014-02-25T13:17:00Z</time>
      </trkpt>
      <trkpt lat="43.61622" lon="6.38671">
        <ele>587.72</ele>
        <time>2014-02-25T13:17:56Z</time>
      </trkpt>
      <trkpt lat="43.61637" lon="6.38686">
        <ele>588.95</ele>
        <time>2014-02-25T13:18:16Z</time>
      </trkpt>
      <trkpt lat="43.6165" lon="6.38704">
        <ele>591.77</ele>
        <time>2014-02-25T13:18:38Z</time>
      </trkpt>
      <trkpt lat="43.61665" lon="6.38722">
        <ele>594.52</ele>
        <time>2014-02-25T13:19:02Z</time>
      </trkpt>
      <trkpt lat="43.61683" lon="6.38727">
        <ele>596.34</ele>
        <time>2014-02-25T13:19:30Z</time>
      </trkpt>
      <trkpt lat="43.61702" lon="6.38726">
        <ele>598.54</ele>
        <time>2014-02-25T13:19:58Z</time>
      </trkpt>
      <trkpt lat="43.61702" lon="6.38726">
        <ele>598.54</ele>
        <time>2014-02-25T13:19:58Z</time>
      </trkpt>
      <trkpt lat="43.61704" lon="6.38731">
        <ele>600.01</ele>
        <time>2014-02-25T13:20:22Z</time>
      </trkpt>
      <trkpt lat="43.61718" lon="6.38748">
        <ele>602.28</ele>
        <time>2014-02-25T13:20:54Z</time>
      </trkpt>
      <trkpt lat="43.61722" lon="6.38751">
        <ele>603.14</ele>
        <time>2014-02-25T13:21:56Z</time>
      </trkpt>
      <trkpt lat="43.61715" lon="6.3875">
        <ele>604.57</ele>
        <time>2014-02-25T13:22:44Z</time>
      </trkpt>
      <trkpt lat="43.61726" lon="6.38753">
        <ele>604.24</ele>
        <time>2014-02-25T13:23:20Z</time>
      </trkpt>
      <trkpt lat="43.61723" lon="6.38752">
        <ele>604.14</ele>
        <time>2014-02-25T13:23:40Z</time>
      </trkpt>
      <trkpt lat="43.61718" lon="6.38756">
        <ele>604.44</ele>
        <time>2014-02-25T13:24:12Z</time>
      </trkpt>
      <trkpt lat="43.61728" lon="6.38734">
        <ele>604.8</ele>
        <time>2014-02-25T13:25:24Z</time>
      </trkpt>
      <trkpt lat="43.61736" lon="6.3871">
        <ele>608.8</ele>
        <time>2014-02-25T13:25:50Z</time>
      </trkpt>
      <trkpt lat="43.61736" lon="6.3871">
        <ele>608.8</ele>
        <time>2014-02-25T13:25:50Z</time>
      </trkpt>
      <trkpt lat="43.61742" lon="6.38686">
        <ele>611.56</ele>
        <time>2014-02-25T13:26:18Z</time>
      </trkpt>
      <trkpt lat="43.61726" lon="6.38672">
        <ele>613.88</ele>
        <time>2014-02-25T13:26:52Z</time>
      </trkpt>
      <trkpt lat="43.61707" lon="6.3867">
        <ele>615.09</ele>
        <time>2014-02-25T13:27:14Z</time>
      </trkpt>
      <trkpt lat="43.61697" lon="6.38649">
        <ele>617.55</ele>
        <time>2014-02-25T13:27:38Z</time>
      </trkpt>
      <trkpt lat="43.61714" lon="6.38638">
        <ele>620.49</ele>
        <time>2014-02-25T13:28:04Z</time>
      </trkpt>
      <trkpt lat="43.61732" lon="6.38624">
        <ele>623.45</ele>
        <time>2014-02-25T13:28:30Z</time>
      </trkpt>
      <trkpt lat="43.61748" lon="6.38612">
        <ele>624.87</ele>
        <time>2014-02-25T13:28:54Z</time>
      </trkpt>
      <trkpt lat="43.61748" lon="6.38612">
        <ele>624.87</ele>
        <time>2014-02-25T13:28:54Z</time>
      </trkpt>
      <trkpt lat="43.61767" lon="6.38606">
        <ele>628.32</ele>
        <time>2014-02-25T13:29:20Z</time>
      </trkpt>
      <trkpt lat="43.61785" lon="6.38602">
        <ele>630.93</ele>
        <time>2014-02-25T13:29:42Z</time>
      </trkpt>
      <trkpt lat="43.618" lon="6.38587">
        <ele>633.61</ele>
        <time>2014-02-25T13:30:06Z</time>
      </trkpt>
      <trkpt lat="43.61818" lon="6.38578">
        <ele>637.71</ele>
        <time>2014-02-25T13:30:30Z</time>
      </trkpt>
      <trkpt lat="43.61835" lon="6.38568">
        <ele>640.82</ele>
        <time>2014-02-25T13:31:32Z</time>
      </trkpt>
      <trkpt lat="43.61849" lon="6.38552">
        <ele>643.4</ele>
        <time>2014-02-25T13:32:00Z</time>
      </trkpt>
      <trkpt lat="43.61849" lon="6.38552">
        <ele>643.4</ele>
        <time>2014-02-25T13:32:00Z</time>
      </trkpt>
      <trkpt lat="43.61864" lon="6.38534">
        <ele>645.3</ele>
        <time>2014-02-25T13:32:26Z</time>
      </trkpt>
      <trkpt lat="43.61881" lon="6.38525">
        <ele>647.85</ele>
        <time>2014-02-25T13:32:50Z</time>
      </trkpt>
      <trkpt lat="43.61899" lon="6.38518">
        <ele>649.4</ele>
        <time>2014-02-25T13:33:14Z</time>
      </trkpt>
      <trkpt lat="43.61915" lon="6.38508">
        <ele>650.6</ele>
        <time>2014-02-25T13:33:34Z</time>
      </trkpt>
      <trkpt lat="43.61932" lon="6.38496">
        <ele>652.8</ele>
        <time>2014-02-25T13:33:58Z</time>
      </trkpt>
      <trkpt lat="43.6195" lon="6.38484">
        <ele>654.61</ele>
        <time>2014-02-25T13:34:22Z</time>
      </trkpt>
      <trkpt lat="43.61967" lon="6.38478">
        <ele>656.46</ele>
        <time>2014-02-25T13:34:42Z</time>
      </trkpt>
      <trkpt lat="43.61985" lon="6.38475">
        <ele>657.64</ele>
        <time>2014-02-25T13:35:04Z</time>
      </trkpt>
      <trkpt lat="43.61985" lon="6.38475">
        <ele>657.64</ele>
        <time>2014-02-25T13:35:04Z</time>
      </trkpt>
      <trkpt lat="43.61994" lon="6.38476">
        <ele>657.89</ele>
        <time>2014-02-25T13:35:24Z</time>
      </trkpt>
      <trkpt lat="43.62011" lon="6.38468">
        <ele>659.25</ele>
        <time>2014-02-25T13:36:22Z</time>
      </trkpt>
      <trkpt lat="43.62019" lon="6.38461">
        <ele>661.18</ele>
        <time>2014-02-25T13:37:52Z</time>
      </trkpt>
      <trkpt lat="43.62019" lon="6.38461">
        <ele>661.18</ele>
        <time>2014-02-25T13:37:52Z</time>
      </trkpt>
      <trkpt lat="43.62019" lon="6.38465">
        <ele>661.06</ele>
        <time>2014-02-25T13:38:29Z</time>
      </trkpt>
      <trkpt lat="43.62034" lon="6.38449">
        <ele>661.51</ele>
        <time>2014-02-25T13:39:11Z</time>
      </trkpt>
      <trkpt lat="43.62053" lon="6.38445">
        <ele>663.72</ele>
        <time>2014-02-25T13:39:29Z</time>
      </trkpt>
      <trkpt lat="43.62072" lon="6.3844">
        <ele>663.55</ele>
        <time>2014-02-25T13:39:49Z</time>
      </trkpt>
      <trkpt lat="43.6209" lon="6.38437">
        <ele>663.64</ele>
        <time>2014-02-25T13:40:09Z</time>
      </trkpt>
      <trkpt lat="43.62109" lon="6.38434">
        <ele>663.43</ele>
        <time>2014-02-25T13:40:27Z</time>
      </trkpt>
      <trkpt lat="43.62127" lon="6.38431">
        <ele>663.98</ele>
        <time>2014-02-25T13:40:47Z</time>
      </trkpt>
      <trkpt lat="43.62147" lon="6.3843">
        <ele>663.86</ele>
        <time>2014-02-25T13:41:07Z</time>
      </trkpt>
      <trkpt lat="43.62147" lon="6.3843">
        <ele>663.86</ele>
        <time>2014-02-25T13:41:07Z</time>
      </trkpt>
      <trkpt lat="43.62165" lon="6.38428">
        <ele>663.95</ele>
        <time>2014-02-25T13:41:35Z</time>
      </trkpt>
      <trkpt lat="43.62183" lon="6.38425">
        <ele>664.33</ele>
        <time>2014-02-25T13:41:57Z</time>
      </trkpt>
      <trkpt lat="43.62203" lon="6.38426">
        <ele>663</ele>
        <time>2014-02-25T13:42:19Z</time>
      </trkpt>
      <trkpt lat="43.62221" lon="6.38427">
        <ele>662.68</ele>
        <time>2014-02-25T13:42:41Z</time>
      </trkpt>
      <trkpt lat="43.6224" lon="6.38432">
        <ele>661.06</ele>
        <time>2014-02-25T13:43:05Z</time>
      </trkpt>
      <trkpt lat="43.62259" lon="6.38438">
        <ele>660.67</ele>
        <time>2014-02-25T13:43:27Z</time>
      </trkpt>
      <trkpt lat="43.62278" lon="6.3844">
        <ele>660.97</ele>
        <time>2014-02-25T13:43:47Z</time>
      </trkpt>
      <trkpt lat="43.62297" lon="6.38439">
        <ele>661.21</ele>
        <time>2014-02-25T13:44:09Z</time>
      </trkpt>
      <trkpt lat="43.62297" lon="6.38439">
        <ele>661.21</ele>
        <time>2014-02-25T13:44:09Z</time>
      </trkpt>
      <trkpt lat="43.62316" lon="6.3844">
        <ele>661.63</ele>
        <time>2014-02-25T13:44:33Z</time>
      </trkpt>
      <trkpt lat="43.62334" lon="6.38438">
        <ele>662.75</ele>
        <time>2014-02-25T13:44:59Z</time>
      </trkpt>
      <trkpt lat="43.62353" lon="6.38431">
        <ele>663.3</ele>
        <time>2014-02-25T13:45:21Z</time>
      </trkpt>
      <trkpt lat="43.62373" lon="6.38431">
        <ele>662.63</ele>
        <time>2014-02-25T13:45:43Z</time>
      </trkpt>
      <trkpt lat="43.62392" lon="6.38435">
        <ele>661.56</ele>
        <time>2014-02-25T13:46:03Z</time>
      </trkpt>
      <trkpt lat="43.6241" lon="6.38441">
        <ele>661.3</ele>
        <time>2014-02-25T13:46:33Z</time>
      </trkpt>
      <trkpt lat="43.62427" lon="6.38448">
        <ele>662.89</ele>
        <time>2014-02-25T13:46:55Z</time>
      </trkpt>
      <trkpt lat="43.62427" lon="6.38448">
        <ele>662.89</ele>
        <time>2014-02-25T13:46:55Z</time>
      </trkpt>
      <trkpt lat="43.6244" lon="6.3843">
        <ele>661.85</ele>
        <time>2014-02-25T13:47:27Z</time>
      </trkpt>
      <trkpt lat="43.62428" lon="6.3841">
        <ele>662.63</ele>
        <time>2014-02-25T13:47:45Z</time>
      </trkpt>
      <trkpt lat="43.62416" lon="6.38391">
        <ele>661.56</ele>
        <time>2014-02-25T13:48:13Z</time>
      </trkpt>
      <trkpt lat="43.6241" lon="6.38366">
        <ele>661.9</ele>
        <time>2014-02-25T13:48:35Z</time>
      </trkpt>
      <trkpt lat="43.62406" lon="6.3834">
        <ele>662.32</ele>
        <time>2014-02-25T13:48:59Z</time>
      </trkpt>
      <trkpt lat="43.62442" lon="6.38251">
        <ele>661.51</ele>
        <time>2014-02-25T13:50:33Z</time>
      </trkpt>
      <trkpt lat="43.62453" lon="6.38227">
        <ele>656.27</ele>
        <time>2014-02-25T13:50:55Z</time>
      </trkpt>
      <trkpt lat="43.6246" lon="6.38202">
        <ele>656.05</ele>
        <time>2014-02-25T13:51:17Z</time>
      </trkpt>
      <trkpt lat="43.62465" lon="6.38177">
        <ele>655.82</ele>
        <time>2014-02-25T13:51:41Z</time>
      </trkpt>
      <trkpt lat="43.62468" lon="6.3815">
        <ele>655.69</ele>
        <time>2014-02-25T13:52:05Z</time>
      </trkpt>
      <trkpt lat="43.62471" lon="6.38125">
        <ele>653.75</ele>
        <time>2014-02-25T13:52:27Z</time>
      </trkpt>
      <trkpt lat="43.6247" lon="6.38098">
        <ele>652.43</ele>
        <time>2014-02-25T13:52:49Z</time>
      </trkpt>
      <trkpt lat="43.62471" lon="6.38072">
        <ele>652.9</ele>
        <time>2014-02-25T13:53:05Z</time>
      </trkpt>
      <trkpt lat="43.62471" lon="6.38072">
        <ele>652.9</ele>
        <time>2014-02-25T13:53:05Z</time>
      </trkpt>
      <trkpt lat="43.62473" lon="6.38046">
        <ele>652.32</ele>
        <time>2014-02-25T13:53:27Z</time>
      </trkpt>
      <trkpt lat="43.62473" lon="6.38021">
        <ele>652.32</ele>
        <time>2014-02-25T13:53:45Z</time>
      </trkpt>
      <trkpt lat="43.62468" lon="6.37997">
        <ele>652.84</ele>
        <time>2014-02-25T13:54:01Z</time>
      </trkpt>
      <trkpt lat="43.62457" lon="6.37975">
        <ele>653.08</ele>
        <time>2014-02-25T13:54:33Z</time>
      </trkpt>
      <trkpt lat="43.62457" lon="6.3795">
        <ele>651.93</ele>
        <time>2014-02-25T13:54:55Z</time>
      </trkpt>
      <trkpt lat="43.62461" lon="6.37925">
        <ele>650.88</ele>
        <time>2014-02-25T13:55:13Z</time>
      </trkpt>
      <trkpt lat="43.62464" lon="6.379">
        <ele>649.99</ele>
        <time>2014-02-25T13:55:33Z</time>
      </trkpt>
      <trkpt lat="43.62469" lon="6.37876">
        <ele>650.52</ele>
        <time>2014-02-25T13:55:55Z</time>
      </trkpt>
      <trkpt lat="43.62469" lon="6.37876">
        <ele>650.52</ele>
        <time>2014-02-25T13:55:55Z</time>
      </trkpt>
      <trkpt lat="43.62476" lon="6.37853">
        <ele>649.38</ele>
        <time>2014-02-25T13:56:25Z</time>
      </trkpt>
      <trkpt lat="43.62483" lon="6.37827">
        <ele>649.59</ele>
        <time>2014-02-25T13:56:43Z</time>
      </trkpt>
      <trkpt lat="43.62492" lon="6.37804">
        <ele>649.92</ele>
        <time>2014-02-25T13:57:03Z</time>
      </trkpt>
      <trkpt lat="43.62504" lon="6.37785">
        <ele>648.71</ele>
        <time>2014-02-25T13:57:25Z</time>
      </trkpt>
      <trkpt lat="43.62517" lon="6.37767">
        <ele>646.7</ele>
        <time>2014-02-25T13:57:43Z</time>
      </trkpt>
      <trkpt lat="43.62529" lon="6.37749">
        <ele>645.31</ele>
        <time>2014-02-25T13:58:01Z</time>
      </trkpt>
      <trkpt lat="43.62543" lon="6.37734">
        <ele>644.93</ele>
        <time>2014-02-25T13:58:25Z</time>
      </trkpt>
      <trkpt lat="43.62557" lon="6.37714">
        <ele>644.5</ele>
        <time>2014-02-25T13:58:45Z</time>
      </trkpt>
      <trkpt lat="43.62571" lon="6.37694">
        <ele>644.97</ele>
        <time>2014-02-25T13:59:05Z</time>
      </trkpt>
      <trkpt lat="43.62571" lon="6.37694">
        <ele>644.97</ele>
        <time>2014-02-25T13:59:05Z</time>
      </trkpt>
      <trkpt lat="43.62585" lon="6.37678">
        <ele>646.1</ele>
        <time>2014-02-25T13:59:39Z</time>
      </trkpt>
      <trkpt lat="43.62596" lon="6.37657">
        <ele>647.62</ele>
        <time>2014-02-25T14:00:07Z</time>
      </trkpt>
      <trkpt lat="43.62608" lon="6.37636">
        <ele>648.69</ele>
        <time>2014-02-25T14:00:25Z</time>
      </trkpt>
      <trkpt lat="43.62619" lon="6.37617">
        <ele>653.2</ele>
        <time>2014-02-25T14:00:57Z</time>
      </trkpt>
      <trkpt lat="43.62627" lon="6.37592">
        <ele>655.98</ele>
        <time>2014-02-25T14:01:19Z</time>
      </trkpt>
      <trkpt lat="43.62637" lon="6.3757">
        <ele>657.09</ele>
        <time>2014-02-25T14:01:39Z</time>
      </trkpt>
      <trkpt lat="43.62643" lon="6.37547">
        <ele>657.27</ele>
        <time>2014-02-25T14:01:55Z</time>
      </trkpt>
      <trkpt lat="43.62648" lon="6.37522">
        <ele>656.9</ele>
        <time>2014-02-25T14:02:15Z</time>
      </trkpt>
      <trkpt lat="43.62648" lon="6.37522">
        <ele>656.9</ele>
        <time>2014-02-25T14:02:15Z</time>
      </trkpt>
      <trkpt lat="43.62654" lon="6.37498">
        <ele>656.36</ele>
        <time>2014-02-25T14:02:35Z</time>
      </trkpt>
      <trkpt lat="43.6266" lon="6.37473">
        <ele>655.12</ele>
        <time>2014-02-25T14:02:55Z</time>
      </trkpt>
      <trkpt lat="43.62667" lon="6.37449">
        <ele>653.35</ele>
        <time>2014-02-25T14:03:13Z</time>
      </trkpt>
      <trkpt lat="43.62671" lon="6.37425">
        <ele>652.87</ele>
        <time>2014-02-25T14:03:27Z</time>
      </trkpt>
      <trkpt lat="43.62673" lon="6.37398">
        <ele>651.79</ele>
        <time>2014-02-25T14:03:51Z</time>
      </trkpt>
      <trkpt lat="43.62677" lon="6.37373">
        <ele>648.92</ele>
        <time>2014-02-25T14:04:15Z</time>
      </trkpt>
      <trkpt lat="43.62678" lon="6.37346">
        <ele>647.33</ele>
        <time>2014-02-25T14:04:31Z</time>
      </trkpt>
      <trkpt lat="43.62679" lon="6.37321">
        <ele>645.46</ele>
        <time>2014-02-25T14:05:03Z</time>
      </trkpt>
      <trkpt lat="43.62683" lon="6.37295">
        <ele>643.64</ele>
        <time>2014-02-25T14:05:19Z</time>
      </trkpt>
      <trkpt lat="43.62683" lon="6.37295">
        <ele>643.64</ele>
        <time>2014-02-25T14:05:19Z</time>
      </trkpt>
      <trkpt lat="43.62685" lon="6.37268">
        <ele>641.82</ele>
        <time>2014-02-25T14:05:35Z</time>
      </trkpt>
      <trkpt lat="43.6269" lon="6.37243">
        <ele>638.04</ele>
        <time>2014-02-25T14:06:21Z</time>
      </trkpt>
      <trkpt lat="43.62691" lon="6.37217">
        <ele>636.58</ele>
        <time>2014-02-25T14:06:47Z</time>
      </trkpt>
      <trkpt lat="43.62693" lon="6.37189">
        <ele>636.5</ele>
        <time>2014-02-25T14:07:05Z</time>
      </trkpt>
      <trkpt lat="43.62688" lon="6.37165">
        <ele>637.29</ele>
        <time>2014-02-25T14:07:33Z</time>
      </trkpt>
      <trkpt lat="43.62685" lon="6.3716">
        <ele>636.36</ele>
        <time>2014-02-25T14:07:59Z</time>
      </trkpt>
      <trkpt lat="43.62685" lon="6.3716">
        <ele>636.36</ele>
        <time>2014-02-25T14:07:59Z</time>
      </trkpt>
      <trkpt lat="43.62683" lon="6.37133">
        <ele>635.01</ele>
        <time>2014-02-25T14:08:23Z</time>
      </trkpt>
      <trkpt lat="43.62687" lon="6.37106">
        <ele>634.11</ele>
        <time>2014-02-25T14:08:41Z</time>
      </trkpt>
      <trkpt lat="43.62686" lon="6.37078">
        <ele>634.69</ele>
        <time>2014-02-25T14:08:59Z</time>
      </trkpt>
      <trkpt lat="43.62683" lon="6.37052">
        <ele>629.71</ele>
        <time>2014-02-25T14:10:25Z</time>
      </trkpt>
      <trkpt lat="43.62682" lon="6.37027">
        <ele>629.55</ele>
        <time>2014-02-25T14:10:35Z</time>
      </trkpt>
      <trkpt lat="43.62686" lon="6.37">
        <ele>631.09</ele>
        <time>2014-02-25T14:10:53Z</time>
      </trkpt>
      <trkpt lat="43.62692" lon="6.36976">
        <ele>631.21</ele>
        <time>2014-02-25T14:11:07Z</time>
      </trkpt>
      <trkpt lat="43.62699" lon="6.36947">
        <ele>630.64</ele>
        <time>2014-02-25T14:11:31Z</time>
      </trkpt>
      <trkpt lat="43.62705" lon="6.36924">
        <ele>630.42</ele>
        <time>2014-02-25T14:11:43Z</time>
      </trkpt>
      <trkpt lat="43.62712" lon="6.369">
        <ele>630.44</ele>
        <time>2014-02-25T14:11:59Z</time>
      </trkpt>
      <trkpt lat="43.62722" lon="6.36878">
        <ele>630.65</ele>
        <time>2014-02-25T14:12:21Z</time>
      </trkpt>
      <trkpt lat="43.62729" lon="6.36852">
        <ele>630.47</ele>
        <time>2014-02-25T14:12:39Z</time>
      </trkpt>
      <trkpt lat="43.62735" lon="6.36827">
        <ele>630.72</ele>
        <time>2014-02-25T14:12:59Z</time>
      </trkpt>
      <trkpt lat="43.62744" lon="6.36805">
        <ele>630.99</ele>
        <time>2014-02-25T14:13:15Z</time>
      </trkpt>
      <trkpt lat="43.62753" lon="6.36782">
        <ele>630.88</ele>
        <time>2014-02-25T14:13:35Z</time>
      </trkpt>
      <trkpt lat="43.62758" lon="6.36758">
        <ele>630.59</ele>
        <time>2014-02-25T14:13:51Z</time>
      </trkpt>
      <trkpt lat="43.62762" lon="6.36732">
        <ele>630.37</ele>
        <time>2014-02-25T14:14:11Z</time>
      </trkpt>
      <trkpt lat="43.62762" lon="6.36732">
        <ele>630.37</ele>
        <time>2014-02-25T14:14:11Z</time>
      </trkpt>
      <trkpt lat="43.62771" lon="6.36711">
        <ele>630.1</ele>
        <time>2014-02-25T14:14:31Z</time>
      </trkpt>
      <trkpt lat="43.62781" lon="6.3669">
        <ele>630.09</ele>
        <time>2014-02-25T14:14:49Z</time>
      </trkpt>
      <trkpt lat="43.62788" lon="6.36665">
        <ele>630.84</ele>
        <time>2014-02-25T14:15:07Z</time>
      </trkpt>
      <trkpt lat="43.62798" lon="6.36643">
        <ele>631.93</ele>
        <time>2014-02-25T14:15:27Z</time>
      </trkpt>
      <trkpt lat="43.6281" lon="6.36622">
        <ele>632.6</ele>
        <time>2014-02-25T14:15:49Z</time>
      </trkpt>
      <trkpt lat="43.62811" lon="6.36597">
        <ele>632.37</ele>
        <time>2014-02-25T14:16:10Z</time>
      </trkpt>
      <trkpt lat="43.62815" lon="6.3657">
        <ele>635.63</ele>
        <time>2014-02-25T14:16:28Z</time>
      </trkpt>
      <trkpt lat="43.62815" lon="6.36545">
        <ele>638.33</ele>
        <time>2014-02-25T14:16:46Z</time>
      </trkpt>
      <trkpt lat="43.6282" lon="6.36518">
        <ele>639.7</ele>
        <time>2014-02-25T14:17:08Z</time>
      </trkpt>
      <trkpt lat="43.6282" lon="6.36518">
        <ele>639.7</ele>
        <time>2014-02-25T14:17:08Z</time>
      </trkpt>
      <trkpt lat="43.62825" lon="6.36492">
        <ele>639.42</ele>
        <time>2014-02-25T14:17:24Z</time>
      </trkpt>
      <trkpt lat="43.62831" lon="6.36467">
        <ele>639.91</ele>
        <time>2014-02-25T14:17:42Z</time>
      </trkpt>
      <trkpt lat="43.62829" lon="6.3644">
        <ele>640.53</ele>
        <time>2014-02-25T14:18:00Z</time>
      </trkpt>
      <trkpt lat="43.62816" lon="6.36422">
        <ele>640.24</ele>
        <time>2014-02-25T14:18:22Z</time>
      </trkpt>
      <trkpt lat="43.62798" lon="6.36417">
        <ele>638.89</ele>
        <time>2014-02-25T14:18:44Z</time>
      </trkpt>
      <trkpt lat="43.62781" lon="6.36405">
        <ele>638.67</ele>
        <time>2014-02-25T14:19:00Z</time>
      </trkpt>
      <trkpt lat="43.62781" lon="6.36378">
        <ele>639.36</ele>
        <time>2014-02-25T14:19:18Z</time>
      </trkpt>
      <trkpt lat="43.62784" lon="6.36353">
        <ele>640.04</ele>
        <time>2014-02-25T14:19:36Z</time>
      </trkpt>
      <trkpt lat="43.62784" lon="6.36353">
        <ele>640.42</ele>
        <time>2014-02-25T14:20:10Z</time>
      </trkpt>
      <trkpt lat="43.62784" lon="6.36353">
        <ele>640.42</ele>
        <time>2014-02-25T14:20:10Z</time>
      </trkpt>
      <trkpt lat="43.62795" lon="6.36333">
        <ele>638.52</ele>
        <time>2014-02-25T14:20:40Z</time>
      </trkpt>
      <trkpt lat="43.62795" lon="6.36306">
        <ele>638.87</ele>
        <time>2014-02-25T14:20:56Z</time>
      </trkpt>
      <trkpt lat="43.62795" lon="6.3628">
        <ele>639.71</ele>
        <time>2014-02-25T14:21:22Z</time>
      </trkpt>
      <trkpt lat="43.6278" lon="6.36296">
        <ele>639.28</ele>
        <time>2014-02-25T14:21:58Z</time>
      </trkpt>
      <trkpt lat="43.62766" lon="6.36315">
        <ele>639.47</ele>
        <time>2014-02-25T14:22:28Z</time>
      </trkpt>
      <trkpt lat="43.62748" lon="6.36326">
        <ele>640.24</ele>
        <time>2014-02-25T14:22:44Z</time>
      </trkpt>
      <trkpt lat="43.62729" lon="6.36337">
        <ele>638.57</ele>
        <time>2014-02-25T14:23:04Z</time>
      </trkpt>
      <trkpt lat="43.62729" lon="6.36337">
        <ele>638.57</ele>
        <time>2014-02-25T14:23:04Z</time>
      </trkpt>
      <trkpt lat="43.62709" lon="6.36336">
        <ele>637.3</ele>
        <time>2014-02-25T14:23:26Z</time>
      </trkpt>
      <trkpt lat="43.62692" lon="6.36347">
        <ele>635.5</ele>
        <time>2014-02-25T14:23:42Z</time>
      </trkpt>
      <trkpt lat="43.62676" lon="6.36365">
        <ele>634.5</ele>
        <time>2014-02-25T14:24:08Z</time>
      </trkpt>
      <trkpt lat="43.62662" lon="6.36384">
        <ele>632.84</ele>
        <time>2014-02-25T14:24:22Z</time>
      </trkpt>
      <trkpt lat="43.62646" lon="6.36397">
        <ele>630.56</ele>
        <time>2014-02-25T14:24:40Z</time>
      </trkpt>
      <trkpt lat="43.6263" lon="6.36413">
        <ele>630.17</ele>
        <time>2014-02-25T14:24:58Z</time>
      </trkpt>
      <trkpt lat="43.62615" lon="6.36428">
        <ele>628.47</ele>
        <time>2014-02-25T14:25:16Z</time>
      </trkpt>
      <trkpt lat="43.626" lon="6.36443">
        <ele>628.57</ele>
        <time>2014-02-25T14:25:32Z</time>
      </trkpt>
      <trkpt lat="43.62585" lon="6.36457">
        <ele>627.32</ele>
        <time>2014-02-25T14:25:50Z</time>
      </trkpt>
      <trkpt lat="43.62585" lon="6.36457">
        <ele>627.32</ele>
        <time>2014-02-25T14:25:50Z</time>
      </trkpt>
      <trkpt lat="43.62566" lon="6.36455">
        <ele>624.62</ele>
        <time>2014-02-25T14:26:22Z</time>
      </trkpt>
      <trkpt lat="43.62548" lon="6.36446">
        <ele>623.51</ele>
        <time>2014-02-25T14:26:36Z</time>
      </trkpt>
      <trkpt lat="43.62529" lon="6.36444">
        <ele>622.37</ele>
        <time>2014-02-25T14:26:56Z</time>
      </trkpt>
      <trkpt lat="43.6251" lon="6.36435">
        <ele>621.09</ele>
        <time>2014-02-25T14:27:14Z</time>
      </trkpt>
      <trkpt lat="43.62491" lon="6.36425">
        <ele>620.99</ele>
        <time>2014-02-25T14:27:32Z</time>
      </trkpt>
      <trkpt lat="43.62473" lon="6.36417">
        <ele>620.74</ele>
        <time>2014-02-25T14:27:48Z</time>
      </trkpt>
      <trkpt lat="43.62453" lon="6.36412">
        <ele>620.37</ele>
        <time>2014-02-25T14:28:06Z</time>
      </trkpt>
      <trkpt lat="43.62435" lon="6.36403">
        <ele>619.87</ele>
        <time>2014-02-25T14:28:24Z</time>
      </trkpt>
      <trkpt lat="43.62417" lon="6.36395">
        <ele>618.38</ele>
        <time>2014-02-25T14:28:40Z</time>
      </trkpt>
      <trkpt lat="43.624" lon="6.36387">
        <ele>616.8</ele>
        <time>2014-02-25T14:29:00Z</time>
      </trkpt>
      <trkpt lat="43.62382" lon="6.36381">
        <ele>616.55</ele>
        <time>2014-02-25T14:29:16Z</time>
      </trkpt>
      <trkpt lat="43.62382" lon="6.36381">
        <ele>616.55</ele>
        <time>2014-02-25T14:29:16Z</time>
      </trkpt>
      <trkpt lat="43.62363" lon="6.36376">
        <ele>614.36</ele>
        <time>2014-02-25T14:29:48Z</time>
      </trkpt>
      <trkpt lat="43.62343" lon="6.36371">
        <ele>613.64</ele>
        <time>2014-02-25T14:30:06Z</time>
      </trkpt>
      <trkpt lat="43.62327" lon="6.36382">
        <ele>612.79</ele>
        <time>2014-02-25T14:31:16Z</time>
      </trkpt>
      <trkpt lat="43.62327" lon="6.36382">
        <ele>612.79</ele>
        <time>2014-02-25T14:31:16Z</time>
      </trkpt>
      <trkpt lat="43.62333" lon="6.36385">
        <ele>611.49</ele>
        <time>2014-02-25T14:32:28Z</time>
      </trkpt>
      <trkpt lat="43.62319" lon="6.36403">
        <ele>609.28</ele>
        <time>2014-02-25T14:32:48Z</time>
      </trkpt>
      <trkpt lat="43.62333" lon="6.36389">
        <ele>606.78</ele>
        <time>2014-02-25T14:34:12Z</time>
      </trkpt>
      <trkpt lat="43.62335" lon="6.3638">
        <ele>607.5</ele>
        <time>2014-02-25T14:35:34Z</time>
      </trkpt>
      <trkpt lat="43.62335" lon="6.3638">
        <ele>607.5</ele>
        <time>2014-02-25T14:35:34Z</time>
      </trkpt>
      <trkpt lat="43.62328" lon="6.36376">
        <ele>606.76</ele>
        <time>2014-02-25T14:38:36Z</time>
      </trkpt>
      <trkpt lat="43.62309" lon="6.36379">
        <ele>608.13</ele>
        <time>2014-02-25T14:38:52Z</time>
      </trkpt>
      <trkpt lat="43.62292" lon="6.36392">
        <ele>610.32</ele>
        <time>2014-02-25T14:39:12Z</time>
      </trkpt>
      <trkpt lat="43.62276" lon="6.3641">
        <ele>611.81</ele>
        <time>2014-02-25T14:39:30Z</time>
      </trkpt>
      <trkpt lat="43.62261" lon="6.36424">
        <ele>613.52</ele>
        <time>2014-02-25T14:39:48Z</time>
      </trkpt>
      <trkpt lat="43.62246" lon="6.36439">
        <ele>613.95</ele>
        <time>2014-02-25T14:40:06Z</time>
      </trkpt>
      <trkpt lat="43.6223" lon="6.36451">
        <ele>614.24</ele>
        <time>2014-02-25T14:40:24Z</time>
      </trkpt>
      <trkpt lat="43.62215" lon="6.3647">
        <ele>614.95</ele>
        <time>2014-02-25T14:40:42Z</time>
      </trkpt>
      <trkpt lat="43.62202" lon="6.36488">
        <ele>614.3</ele>
        <time>2014-02-25T14:40:58Z</time>
      </trkpt>
      <trkpt lat="43.62189" lon="6.36507">
        <ele>614.44</ele>
        <time>2014-02-25T14:41:12Z</time>
      </trkpt>
      <trkpt lat="43.62175" lon="6.36526">
        <ele>614.94</ele>
        <time>2014-02-25T14:41:30Z</time>
      </trkpt>
      <trkpt lat="43.62158" lon="6.36538">
        <ele>614.76</ele>
        <time>2014-02-25T14:41:48Z</time>
      </trkpt>
      <trkpt lat="43.62143" lon="6.36553">
        <ele>614.59</ele>
        <time>2014-02-25T14:42:14Z</time>
      </trkpt>
      <trkpt lat="43.62125" lon="6.36563">
        <ele>614.41</ele>
        <time>2014-02-25T14:42:34Z</time>
      </trkpt>
      <trkpt lat="43.62118" lon="6.36565">
        <ele>614.83</ele>
        <time>2014-02-25T14:42:44Z</time>
      </trkpt>
      <trkpt lat="43.621" lon="6.36571">
        <ele>614.1</ele>
        <time>2014-02-25T14:43:10Z</time>
      </trkpt>
      <trkpt lat="43.62081" lon="6.36577">
        <ele>615.63</ele>
        <time>2014-02-25T14:43:30Z</time>
      </trkpt>
      <trkpt lat="43.62063" lon="6.36581">
        <ele>617.66</ele>
        <time>2014-02-25T14:43:44Z</time>
      </trkpt>
      <trkpt lat="43.62044" lon="6.36588">
        <ele>619.3</ele>
        <time>2014-02-25T14:44:02Z</time>
      </trkpt>
      <trkpt lat="43.62027" lon="6.366">
        <ele>620.8</ele>
        <time>2014-02-25T14:44:20Z</time>
      </trkpt>
      <trkpt lat="43.62009" lon="6.36609">
        <ele>622.05</ele>
        <time>2014-02-25T14:44:36Z</time>
      </trkpt>
      <trkpt lat="43.61991" lon="6.36618">
        <ele>622.68</ele>
        <time>2014-02-25T14:44:56Z</time>
      </trkpt>
      <trkpt lat="43.61974" lon="6.36629">
        <ele>622.29</ele>
        <time>2014-02-25T14:45:10Z</time>
      </trkpt>
      <trkpt lat="43.61955" lon="6.36638">
        <ele>623.01</ele>
        <time>2014-02-25T14:45:30Z</time>
      </trkpt>
      <trkpt lat="43.61955" lon="6.36638">
        <ele>623.01</ele>
        <time>2014-02-25T14:45:30Z</time>
      </trkpt>
      <trkpt lat="43.61937" lon="6.36646">
        <ele>623.75</ele>
        <time>2014-02-25T14:45:46Z</time>
      </trkpt>
      <trkpt lat="43.6192" lon="6.36655">
        <ele>624.52</ele>
        <time>2014-02-25T14:46:02Z</time>
      </trkpt>
      <trkpt lat="43.61903" lon="6.36667">
        <ele>625.13</ele>
        <time>2014-02-25T14:46:20Z</time>
      </trkpt>
      <trkpt lat="43.61887" lon="6.36679">
        <ele>625.29</ele>
        <time>2014-02-25T14:46:38Z</time>
      </trkpt>
      <trkpt lat="43.6187" lon="6.36694">
        <ele>625.75</ele>
        <time>2014-02-25T14:46:56Z</time>
      </trkpt>
      <trkpt lat="43.61854" lon="6.36706">
        <ele>625.28</ele>
        <time>2014-02-25T14:47:16Z</time>
      </trkpt>
      <trkpt lat="43.61837" lon="6.36715">
        <ele>623.98</ele>
        <time>2014-02-25T14:48:02Z</time>
      </trkpt>
      <trkpt lat="43.61818" lon="6.36722">
        <ele>624.98</ele>
        <time>2014-02-25T14:48:20Z</time>
      </trkpt>
      <trkpt lat="43.618" lon="6.36729">
        <ele>624.43</ele>
        <time>2014-02-25T14:48:40Z</time>
      </trkpt>
      <trkpt lat="43.618" lon="6.36729">
        <ele>624.43</ele>
        <time>2014-02-25T14:48:40Z</time>
      </trkpt>
      <trkpt lat="43.61782" lon="6.36738">
        <ele>624.41</ele>
        <time>2014-02-25T14:49:02Z</time>
      </trkpt>
      <trkpt lat="43.61765" lon="6.36747">
        <ele>625.47</ele>
        <time>2014-02-25T14:49:20Z</time>
      </trkpt>
      <trkpt lat="43.61744" lon="6.36746">
        <ele>625.13</ele>
        <time>2014-02-25T14:49:42Z</time>
      </trkpt>
      <trkpt lat="43.61726" lon="6.36748">
        <ele>625.31</ele>
        <time>2014-02-25T14:50:00Z</time>
      </trkpt>
      <trkpt lat="43.61706" lon="6.36751">
        <ele>625.89</ele>
        <time>2014-02-25T14:50:22Z</time>
      </trkpt>
      <trkpt lat="43.61687" lon="6.36752">
        <ele>624.91</ele>
        <time>2014-02-25T14:50:42Z</time>
      </trkpt>
      <trkpt lat="43.61668" lon="6.36753">
        <ele>625.26</ele>
        <time>2014-02-25T14:51:02Z</time>
      </trkpt>
      <trkpt lat="43.6165" lon="6.36751">
        <ele>625.74</ele>
        <time>2014-02-25T14:51:20Z</time>
      </trkpt>
      <trkpt lat="43.6163" lon="6.36752">
        <ele>624.59</ele>
        <time>2014-02-25T14:51:40Z</time>
      </trkpt>
      <trkpt lat="43.6163" lon="6.36752">
        <ele>624.59</ele>
        <time>2014-02-25T14:51:40Z</time>
      </trkpt>
      <trkpt lat="43.61611" lon="6.36756">
        <ele>624.51</ele>
        <time>2014-02-25T14:51:58Z</time>
      </trkpt>
      <trkpt lat="43.61591" lon="6.36754">
        <ele>624.29</ele>
        <time>2014-02-25T14:52:16Z</time>
      </trkpt>
      <trkpt lat="43.61573" lon="6.36753">
        <ele>623.68</ele>
        <time>2014-02-25T14:52:37Z</time>
      </trkpt>
      <trkpt lat="43.61555" lon="6.36746">
        <ele>623.37</ele>
        <time>2014-02-25T14:52:57Z</time>
      </trkpt>
      <trkpt lat="43.61539" lon="6.36735">
        <ele>624.39</ele>
        <time>2014-02-25T14:53:15Z</time>
      </trkpt>
      <trkpt lat="43.6152" lon="6.36728">
        <ele>623.91</ele>
        <time>2014-02-25T14:53:35Z</time>
      </trkpt>
      <trkpt lat="43.61502" lon="6.36723">
        <ele>623.1</ele>
        <time>2014-02-25T14:53:53Z</time>
      </trkpt>
      <trkpt lat="43.61484" lon="6.36716">
        <ele>621.99</ele>
        <time>2014-02-25T14:54:13Z</time>
      </trkpt>
      <trkpt lat="43.61467" lon="6.36705">
        <ele>621.3</ele>
        <time>2014-02-25T14:54:31Z</time>
      </trkpt>
      <trkpt lat="43.61467" lon="6.36705">
        <ele>621.3</ele>
        <time>2014-02-25T14:54:31Z</time>
      </trkpt>
      <trkpt lat="43.6145" lon="6.36695">
        <ele>620.58</ele>
        <time>2014-02-25T14:54:51Z</time>
      </trkpt>
      <trkpt lat="43.61433" lon="6.36702">
        <ele>620.16</ele>
        <time>2014-02-25T14:55:11Z</time>
      </trkpt>
      <trkpt lat="43.61417" lon="6.3669">
        <ele>616.81</ele>
        <time>2014-02-25T14:55:41Z</time>
      </trkpt>
      <trkpt lat="43.614" lon="6.36678">
        <ele>614.82</ele>
        <time>2014-02-25T14:55:59Z</time>
      </trkpt>
      <trkpt lat="43.61382" lon="6.36684">
        <ele>613.33</ele>
        <time>2014-02-25T14:56:17Z</time>
      </trkpt>
      <trkpt lat="43.61365" lon="6.36671">
        <ele>611.64</ele>
        <time>2014-02-25T14:56:51Z</time>
      </trkpt>
      <trkpt lat="43.61352" lon="6.36654">
        <ele>609.37</ele>
        <time>2014-02-25T14:57:07Z</time>
      </trkpt>
      <trkpt lat="43.61335" lon="6.36639">
        <ele>609.24</ele>
        <time>2014-02-25T14:57:29Z</time>
      </trkpt>
      <trkpt lat="43.61335" lon="6.36639">
        <ele>609.24</ele>
        <time>2014-02-25T14:57:29Z</time>
      </trkpt>
      <trkpt lat="43.61318" lon="6.3663">
        <ele>607.63</ele>
        <time>2014-02-25T14:57:49Z</time>
      </trkpt>
      <trkpt lat="43.61301" lon="6.36641">
        <ele>605.41</ele>
        <time>2014-02-25T14:58:13Z</time>
      </trkpt>
      <trkpt lat="43.61303" lon="6.36667">
        <ele>600.87</ele>
        <time>2014-02-25T14:58:39Z</time>
      </trkpt>
      <trkpt lat="43.61301" lon="6.36693">
        <ele>596.74</ele>
        <time>2014-02-25T14:58:57Z</time>
      </trkpt>
      <trkpt lat="43.61282" lon="6.3669">
        <ele>594.89</ele>
        <time>2014-02-25T14:59:23Z</time>
      </trkpt>
      <trkpt lat="43.61265" lon="6.36698">
        <ele>592.76</ele>
        <time>2014-02-25T14:59:47Z</time>
      </trkpt>
      <trkpt lat="43.6125" lon="6.36714">
        <ele>589.33</ele>
        <time>2014-02-25T15:00:21Z</time>
      </trkpt>
      <trkpt lat="43.6125" lon="6.36714">
        <ele>589.33</ele>
        <time>2014-02-25T15:00:21Z</time>
      </trkpt>
      <trkpt lat="43.61235" lon="6.36716">
        <ele>588.8</ele>
        <time>2014-02-25T15:00:47Z</time>
      </trkpt>
      <trkpt lat="43.61219" lon="6.36724">
        <ele>587.24</ele>
        <time>2014-02-25T15:01:11Z</time>
      </trkpt>
      <trkpt lat="43.61197" lon="6.36734">
        <ele>584.59</ele>
        <time>2014-02-25T15:01:33Z</time>
      </trkpt>
      <trkpt lat="43.61181" lon="6.36748">
        <ele>584.24</ele>
        <time>2014-02-25T15:01:49Z</time>
      </trkpt>
      <trkpt lat="43.6117" lon="6.36768">
        <ele>583.28</ele>
        <time>2014-02-25T15:02:05Z</time>
      </trkpt>
      <trkpt lat="43.61163" lon="6.36794">
        <ele>581.55</ele>
        <time>2014-02-25T15:02:19Z</time>
      </trkpt>
      <trkpt lat="43.61157" lon="6.36817">
        <ele>579.5</ele>
        <time>2014-02-25T15:02:39Z</time>
      </trkpt>
      <trkpt lat="43.61153" lon="6.36844">
        <ele>576.96</ele>
        <time>2014-02-25T15:02:55Z</time>
      </trkpt>
      <trkpt lat="43.61152" lon="6.36871">
        <ele>574.17</ele>
        <time>2014-02-25T15:03:17Z</time>
      </trkpt>
      <trkpt lat="43.6115" lon="6.36897">
        <ele>572.99</ele>
        <time>2014-02-25T15:03:35Z</time>
      </trkpt>
      <trkpt lat="43.6115" lon="6.36897">
        <ele>572.99</ele>
        <time>2014-02-25T15:03:35Z</time>
      </trkpt>
      <trkpt lat="43.61145" lon="6.36922">
        <ele>572.34</ele>
        <time>2014-02-25T15:03:57Z</time>
      </trkpt>
      <trkpt lat="43.61131" lon="6.3694">
        <ele>571.18</ele>
        <time>2014-02-25T15:04:17Z</time>
      </trkpt>
      <trkpt lat="43.61119" lon="6.36959">
        <ele>570.09</ele>
        <time>2014-02-25T15:04:47Z</time>
      </trkpt>
      <trkpt lat="43.61103" lon="6.36975">
        <ele>567.55</ele>
        <time>2014-02-25T15:05:11Z</time>
      </trkpt>
      <trkpt lat="43.61089" lon="6.36993">
        <ele>566.87</ele>
        <time>2014-02-25T15:05:27Z</time>
      </trkpt>
      <trkpt lat="43.61074" lon="6.37009">
        <ele>563.87</ele>
        <time>2014-02-25T15:06:15Z</time>
      </trkpt>
      <trkpt lat="43.61058" lon="6.37021">
        <ele>563.59</ele>
        <time>2014-02-25T15:06:37Z</time>
      </trkpt>
      <trkpt lat="43.61058" lon="6.37021">
        <ele>563.59</ele>
        <time>2014-02-25T15:06:37Z</time>
      </trkpt>
      <trkpt lat="43.61042" lon="6.37033">
        <ele>563.98</ele>
        <time>2014-02-25T15:07:05Z</time>
      </trkpt>
      <trkpt lat="43.61027" lon="6.37049">
        <ele>568.34</ele>
        <time>2014-02-25T15:07:47Z</time>
      </trkpt>
      <trkpt lat="43.61009" lon="6.37044">
        <ele>572.95</ele>
        <time>2014-02-25T15:08:25Z</time>
      </trkpt>
      <trkpt lat="43.60992" lon="6.37035">
        <ele>578.48</ele>
        <time>2014-02-25T15:09:03Z</time>
      </trkpt>
      <trkpt lat="43.60992" lon="6.37035">
        <ele>578.48</ele>
        <time>2014-02-25T15:09:03Z</time>
      </trkpt>
      <trkpt lat="43.60979" lon="6.37052">
        <ele>585.72</ele>
        <time>2014-02-25T15:09:51Z</time>
      </trkpt>
      <trkpt lat="43.60967" lon="6.3707">
        <ele>589.42</ele>
        <time>2014-02-25T15:10:27Z</time>
      </trkpt>
      <trkpt lat="43.60951" lon="6.37083">
        <ele>593.13</ele>
        <time>2014-02-25T15:11:13Z</time>
      </trkpt>
      <trkpt lat="43.60941" lon="6.37101">
        <ele>598.34</ele>
        <time>2014-02-25T15:12:11Z</time>
      </trkpt>
      <trkpt lat="43.60941" lon="6.37101">
        <ele>598.34</ele>
        <time>2014-02-25T15:12:11Z</time>
      </trkpt>
      <trkpt lat="43.60925" lon="6.37113">
        <ele>602.88</ele>
        <time>2014-02-25T15:12:45Z</time>
      </trkpt>
      <trkpt lat="43.60916" lon="6.37127">
        <ele>604.88</ele>
        <time>2014-02-25T15:13:04Z</time>
      </trkpt>
      <trkpt lat="43.60903" lon="6.37143">
        <ele>607.92</ele>
        <time>2014-02-25T15:13:26Z</time>
      </trkpt>
      <trkpt lat="43.60885" lon="6.37156">
        <ele>610.09</ele>
        <time>2014-02-25T15:13:44Z</time>
      </trkpt>
      <trkpt lat="43.60869" lon="6.3717">
        <ele>613.28</ele>
        <time>2014-02-25T15:14:06Z</time>
      </trkpt>
      <trkpt lat="43.60855" lon="6.37189">
        <ele>614.72</ele>
        <time>2014-02-25T15:14:22Z</time>
      </trkpt>
      <trkpt lat="43.60842" lon="6.37207">
        <ele>616.21</ele>
        <time>2014-02-25T15:14:40Z</time>
      </trkpt>
      <trkpt lat="43.60829" lon="6.37226">
        <ele>616.56</ele>
        <time>2014-02-25T15:15:10Z</time>
      </trkpt>
      <trkpt lat="43.60816" lon="6.37243">
        <ele>617.04</ele>
        <time>2014-02-25T15:15:40Z</time>
      </trkpt>
      <trkpt lat="43.60816" lon="6.37243">
        <ele>617.04</ele>
        <time>2014-02-25T15:15:40Z</time>
      </trkpt>
      <trkpt lat="43.60805" lon="6.37265">
        <ele>616.6</ele>
        <time>2014-02-25T15:16:04Z</time>
      </trkpt>
      <trkpt lat="43.60796" lon="6.37286">
        <ele>618.67</ele>
        <time>2014-02-25T15:16:26Z</time>
      </trkpt>
      <trkpt lat="43.60783" lon="6.37304">
        <ele>618.51</ele>
        <time>2014-02-25T15:16:58Z</time>
      </trkpt>
      <trkpt lat="43.6077" lon="6.37322">
        <ele>618.8</ele>
        <time>2014-02-25T15:17:22Z</time>
      </trkpt>
      <trkpt lat="43.60763" lon="6.37328">
        <ele>618.39</ele>
        <time>2014-02-25T15:17:56Z</time>
      </trkpt>
      <trkpt lat="43.60755" lon="6.37344">
        <ele>620.67</ele>
        <time>2014-02-25T15:19:00Z</time>
      </trkpt>
      <trkpt lat="43.60755" lon="6.37344">
        <ele>620.67</ele>
        <time>2014-02-25T15:19:00Z</time>
      </trkpt>
      <trkpt lat="43.6074" lon="6.37361">
        <ele>619.42</ele>
        <time>2014-02-25T15:19:22Z</time>
      </trkpt>
      <trkpt lat="43.60725" lon="6.3738">
        <ele>620.07</ele>
        <time>2014-02-25T15:19:48Z</time>
      </trkpt>
      <trkpt lat="43.60717" lon="6.37403">
        <ele>618.1</ele>
        <time>2014-02-25T15:20:08Z</time>
      </trkpt>
      <trkpt lat="43.60707" lon="6.37427">
        <ele>617.52</ele>
        <time>2014-02-25T15:20:18Z</time>
      </trkpt>
      <trkpt lat="43.60706" lon="6.37452">
        <ele>616.19</ele>
        <time>2014-02-25T15:20:36Z</time>
      </trkpt>
      <trkpt lat="43.60698" lon="6.37475">
        <ele>615.15</ele>
        <time>2014-02-25T15:20:52Z</time>
      </trkpt>
      <trkpt lat="43.60697" lon="6.37504">
        <ele>616.12</ele>
        <time>2014-02-25T15:21:12Z</time>
      </trkpt>
      <trkpt lat="43.60695" lon="6.37531">
        <ele>618.57</ele>
        <time>2014-02-25T15:21:28Z</time>
      </trkpt>
      <trkpt lat="43.60694" lon="6.37559">
        <ele>619.51</ele>
        <time>2014-02-25T15:21:40Z</time>
      </trkpt>
      <trkpt lat="43.60698" lon="6.37584">
        <ele>619.64</ele>
        <time>2014-02-25T15:21:54Z</time>
      </trkpt>
      <trkpt lat="43.60698" lon="6.37584">
        <ele>619.64</ele>
        <time>2014-02-25T15:21:54Z</time>
      </trkpt>
      <trkpt lat="43.60699" lon="6.3761">
        <ele>620.26</ele>
        <time>2014-02-25T15:22:10Z</time>
      </trkpt>
      <trkpt lat="43.60702" lon="6.37635">
        <ele>619.27</ele>
        <time>2014-02-25T15:22:24Z</time>
      </trkpt>
      <trkpt lat="43.60706" lon="6.37661">
        <ele>617.42</ele>
        <time>2014-02-25T15:22:38Z</time>
      </trkpt>
      <trkpt lat="43.60706" lon="6.37689">
        <ele>616.39</ele>
        <time>2014-02-25T15:22:54Z</time>
      </trkpt>
      <trkpt lat="43.6071" lon="6.37714">
        <ele>615.27</ele>
        <time>2014-02-25T15:23:08Z</time>
      </trkpt>
      <trkpt lat="43.60712" lon="6.37742">
        <ele>613.79</ele>
        <time>2014-02-25T15:23:24Z</time>
      </trkpt>
      <trkpt lat="43.60715" lon="6.37767">
        <ele>613.83</ele>
        <time>2014-02-25T15:23:40Z</time>
      </trkpt>
      <trkpt lat="43.60718" lon="6.37792">
        <ele>613.36</ele>
        <time>2014-02-25T15:23:56Z</time>
      </trkpt>
      <trkpt lat="43.60719" lon="6.37818">
        <ele>612.54</ele>
        <time>2014-02-25T15:24:14Z</time>
      </trkpt>
      <trkpt lat="43.60721" lon="6.37845">
        <ele>612.04</ele>
        <time>2014-02-25T15:24:30Z</time>
      </trkpt>
      <trkpt lat="43.60725" lon="6.37871">
        <ele>612.73</ele>
        <time>2014-02-25T15:24:50Z</time>
      </trkpt>
      <trkpt lat="43.60725" lon="6.37871">
        <ele>612.73</ele>
        <time>2014-02-25T15:24:50Z</time>
      </trkpt>
      <trkpt lat="43.60727" lon="6.37897">
        <ele>614.58</ele>
        <time>2014-02-25T15:25:12Z</time>
      </trkpt>
      <trkpt lat="43.60729" lon="6.37922">
        <ele>616.11</ele>
        <time>2014-02-25T15:25:30Z</time>
      </trkpt>
      <trkpt lat="43.60734" lon="6.37948">
        <ele>616.95</ele>
        <time>2014-02-25T15:25:48Z</time>
      </trkpt>
      <trkpt lat="43.60737" lon="6.37974">
        <ele>617.3</ele>
        <time>2014-02-25T15:26:04Z</time>
      </trkpt>
      <trkpt lat="43.60741" lon="6.38">
        <ele>616.88</ele>
        <time>2014-02-25T15:26:18Z</time>
      </trkpt>
      <trkpt lat="43.60747" lon="6.38025">
        <ele>615.49</ele>
        <time>2014-02-25T15:26:36Z</time>
      </trkpt>
      <trkpt lat="43.60759" lon="6.38047">
        <ele>613.82</ele>
        <time>2014-02-25T15:26:56Z</time>
      </trkpt>
      <trkpt lat="43.60772" lon="6.38065">
        <ele>613.62</ele>
        <time>2014-02-25T15:27:14Z</time>
      </trkpt>
      <trkpt lat="43.60786" lon="6.38082">
        <ele>613.44</ele>
        <time>2014-02-25T15:27:32Z</time>
      </trkpt>
      <trkpt lat="43.60796" lon="6.38105">
        <ele>612.39</ele>
        <time>2014-02-25T15:27:48Z</time>
      </trkpt>
      <trkpt lat="43.60796" lon="6.38105">
        <ele>612.39</ele>
        <time>2014-02-25T15:27:48Z</time>
      </trkpt>
      <trkpt lat="43.60796" lon="6.3813">
        <ele>611.74</ele>
        <time>2014-02-25T15:28:06Z</time>
      </trkpt>
      <trkpt lat="43.60795" lon="6.38156">
        <ele>609.98</ele>
        <time>2014-02-25T15:28:24Z</time>
      </trkpt>
      <trkpt lat="43.60793" lon="6.38181">
        <ele>607.85</ele>
        <time>2014-02-25T15:28:40Z</time>
      </trkpt>
      <trkpt lat="43.60791" lon="6.38208">
        <ele>606.8</ele>
        <time>2014-02-25T15:28:56Z</time>
      </trkpt>
      <trkpt lat="43.60788" lon="6.38235">
        <ele>605.46</ele>
        <time>2014-02-25T15:29:14Z</time>
      </trkpt>
      <trkpt lat="43.60772" lon="6.38252">
        <ele>603.84</ele>
        <time>2014-02-25T15:29:36Z</time>
      </trkpt>
      <trkpt lat="43.60762" lon="6.38274">
        <ele>602.58</ele>
        <time>2014-02-25T15:30:03Z</time>
      </trkpt>
      <trkpt lat="43.60747" lon="6.38289">
        <ele>600.42</ele>
        <time>2014-02-25T15:30:37Z</time>
      </trkpt>
      <trkpt lat="43.60747" lon="6.38289">
        <ele>600.42</ele>
        <time>2014-02-25T15:30:37Z</time>
      </trkpt>
      <trkpt lat="43.60732" lon="6.38303">
        <ele>598.21</ele>
        <time>2014-02-25T15:31:07Z</time>
      </trkpt>
      <trkpt lat="43.60723" lon="6.38281">
        <ele>592.14</ele>
        <time>2014-02-25T15:31:31Z</time>
      </trkpt>
      <trkpt lat="43.60724" lon="6.3828">
        <ele>590.95</ele>
        <time>2014-02-25T15:31:50Z</time>
      </trkpt>
      <trkpt lat="43.60704" lon="6.38289">
        <ele>588.67</ele>
        <time>2014-02-25T15:32:08Z</time>
      </trkpt>
      <trkpt lat="43.60687" lon="6.38297">
        <ele>587.51</ele>
        <time>2014-02-25T15:32:30Z</time>
      </trkpt>
      <trkpt lat="43.60668" lon="6.38287">
        <ele>588.35</ele>
        <time>2014-02-25T15:32:48Z</time>
      </trkpt>
      <trkpt lat="43.60656" lon="6.38268">
        <ele>587.38</ele>
        <time>2014-02-25T15:33:04Z</time>
      </trkpt>
      <trkpt lat="43.60643" lon="6.3825">
        <ele>586.32</ele>
        <time>2014-02-25T15:33:32Z</time>
      </trkpt>
      <trkpt lat="43.60618" lon="6.38234">
        <ele>585.4</ele>
        <time>2014-02-25T15:34:02Z</time>
      </trkpt>
      <trkpt lat="43.60618" lon="6.38234">
        <ele>585.4</ele>
        <time>2014-02-25T15:34:02Z</time>
      </trkpt>
      <trkpt lat="43.60602" lon="6.38248">
        <ele>582.07</ele>
        <time>2014-02-25T15:34:19Z</time>
      </trkpt>
      <trkpt lat="43.60597" lon="6.38241">
        <ele>576.37</ele>
        <time>2014-02-25T15:34:51Z</time>
      </trkpt>
      <trkpt lat="43.60583" lon="6.38234">
        <ele>576.87</ele>
        <time>2014-02-25T15:35:27Z</time>
      </trkpt>
      <trkpt lat="43.60566" lon="6.38221">
        <ele>572.35</ele>
        <time>2014-02-25T15:35:53Z</time>
      </trkpt>
      <trkpt lat="43.60559" lon="6.38226">
        <ele>570.25</ele>
        <time>2014-02-25T15:39:29Z</time>
      </trkpt>
    </trkseg>
  </trk>
</gpx>